sensor_id;sensor_type;location;lat;lon;timestamp;temperature;humidity
16838;DHT22;19510;54.486;9.046;2023-04-15T05:22:07;9.20;99.90
16838;DHT22;19510;54.486;9.046;2023-04-15T05:24:35;9.20;99.90
16838;DHT22;19510;54.486;9.046;2023-04-15T05:27:01;9.20;99.90
16838;DHT22;19510;54.486;9.046;2023-04-15T05:29:27;9.20;99.90
16838;DHT22;19510;54.486;9.046;2023-04-15T05:31:52;9.20;99.90
16838;DHT22;19510;54.486;9.046;2023-04-15T05:34:21;9.20;99.90
16838;DHT22;19510;54.486;9.046;2023-04-15T05:36:47;9.20;99.90
16838;DHT22;19510;54.486;9.046;2023-04-15T05:39:15;9.20;99.90
16838;DHT22;19510;54.486;9.046;2023-04-15T05:41:41;9.20;99.90
16838;DHT22;19510;54.486;9.046;2023-04-15T05:44:09;9.20;99.90
16838;DHT22;19510;54.486;9.046;2023-04-15T05:46:35;9.20;99.90
16838;DHT22;19510;54.486;9.046;2023-04-15T05:49:00;9.20;99.90
16838;DHT22;19510;54.486;9.046;2023-04-15T05:51:29;9.20;99.90
16838;DHT22;19510;54.486;9.046;2023-04-15T05:53:55;9.30;99.90
16838;DHT22;19510;54.486;9.046;2023-04-15T05:56:23;9.30;99.90
16838;DHT22;19510;54.486;9.046;2023-04-15T05:58:51;9.30;99.90
16838;DHT22;19510;54.486;9.046;2023-04-15T06:01:17;9.30;99.90
16838;DHT22;19510;54.486;9.046;2023-04-15T06:03:42;9.30;99.90
16838;DHT22;19510;54.486;9.046;2023-04-15T06:06:09;9.30;99.90
16838;DHT22;19510;54.486;9.046;2023-04-15T06:08:35;9.30;99.90
16838;DHT22;19510;54.486;9.046;2023-04-15T06:11:00;9.30;99.90
16838;DHT22;19510;54.486;9.046;2023-04-15T06:13:26;9.30;99.90
16838;DHT22;19510;54.486;9.046;2023-04-15T06:15:52;9.30;99.90
16838;DHT22;19510;54.486;9.046;2023-04-15T06:18:18;9.30;99.90
16838;DHT22;19510;54.486;9.046;2023-04-15T06:20:44;9.40;99.90
16838;DHT22;19510;54.486;9.046;2023-04-15T06:23:10;9.30;99.90
16838;DHT22;19510;54.486;9.046;2023-04-15T06:25:36;9.40;99.90
16838;DHT22;19510;54.486;9.046;2023-04-15T06:28:05;9.40;99.90
16838;DHT22;19510;54.486;9.046;2023-04-15T06:30:31;9.40;99.90
16838;DHT22;19510;54.486;9.046;2023-04-15T06:32:56;9.40;99.90
16838;DHT22;19510;54.486;9.046;2023-04-15T06:35:22;9.40;99.90
16838;DHT22;19510;54.486;9.046;2023-04-15T06:37:48;9.30;99.90
16838;DHT22;19510;54.486;9.046;2023-04-15T06:40:13;9.40;99.90
16838;DHT22;19510;54.486;9.046;2023-04-15T06:42:42;9.40;99.90
16838;DHT22;19510;54.486;9.046;2023-04-15T06:45:13;9.40;99.90
16838;DHT22;19510;54.486;9.046;2023-04-15T06:47:38;9.40;99.90
16838;DHT22;19510;54.486;9.046;2023-04-15T06:50:08;9.50;99.90
16838;DHT22;19510;54.486;9.046;2023-04-15T06:52:34;9.50;99.90
16838;DHT22;19510;54.486;9.046;2023-04-15T06:55:00;9.50;99.90
16838;DHT22;19510;54.486;9.046;2023-04-15T06:57:26;9.50;99.90
16838;DHT22;19510;54.486;9.046;2023-04-15T06:59:53;9.50;99.90
16838;DHT22;19510;54.486;9.046;2023-04-15T07:02:19;9.50;99.90
16838;DHT22;19510;54.486;9.046;2023-04-15T07:04:45;9.50;99.90
16838;DHT22;19510;54.486;9.046;2023-04-15T07:07:11;9.60;99.90
16838;DHT22;19510;54.486;9.046;2023-04-15T07:09:37;9.50;99.90
16838;DHT22;19510;54.486;9.046;2023-04-15T07:12:03;9.60;99.90
16838;DHT22;19510;54.486;9.046;2023-04-15T07:14:28;9.60;99.90
16838;DHT22;19510;54.486;9.046;2023-04-15T07:16:54;9.60;99.90
16838;DHT22;19510;54.486;9.046;2023-04-15T07:19:20;9.60;99.90
16838;DHT22;19510;54.486;9.046;2023-04-15T07:21:46;9.70;99.90
16838;DHT22;19510;54.486;9.046;2023-04-15T07:24:12;9.60;99.90
16838;DHT22;19510;54.486;9.046;2023-04-15T07:26:41;9.60;99.90
16838;DHT22;19510;54.486;9.046;2023-04-15T07:29:06;9.70;99.90
16838;DHT22;19510;54.486;9.046;2023-04-15T07:31:32;9.70;99.90
16838;DHT22;19510;54.486;9.046;2023-04-15T07:33:58;9.70;99.90
16838;DHT22;19510;54.486;9.046;2023-04-15T07:36:24;9.70;99.90
16838;DHT22;19510;54.486;9.046;2023-04-15T07:38:49;9.80;99.90
16838;DHT22;19510;54.486;9.046;2023-04-15T07:41:15;9.80;99.90
16838;DHT22;19510;54.486;9.046;2023-04-15T07:43:41;9.80;99.90
16838;DHT22;19510;54.486;9.046;2023-04-15T07:46:07;10.00;99.90
16838;DHT22;19510;54.486;9.046;2023-04-15T07:48:33;9.90;99.90
16838;DHT22;19510;54.486;9.046;2023-04-15T07:50:59;9.90;99.90
16838;DHT22;19510;54.486;9.046;2023-04-15T07:53:25;9.90;99.90
16838;DHT22;19510;54.486;9.046;2023-04-15T07:55:51;9.90;99.90
16838;DHT22;19510;54.486;9.046;2023-04-15T07:58:16;9.90;99.90
16838;DHT22;19510;54.486;9.046;2023-04-15T08:00:42;9.90;99.90
16838;DHT22;19510;54.486;9.046;2023-04-15T08:03:08;10.00;99.90
16838;DHT22;19510;54.486;9.046;2023-04-15T08:05:33;10.00;99.90
16838;DHT22;19510;54.486;9.046;2023-04-15T08:07:59;10.00;99.90
16838;DHT22;19510;54.486;9.046;2023-04-15T08:10:25;10.00;99.90
16838;DHT22;19510;54.486;9.046;2023-04-15T08:12:51;10.00;99.90
16838;DHT22;19510;54.486;9.046;2023-04-15T08:15:19;10.00;99.90
16838;DHT22;19510;54.486;9.046;2023-04-15T08:17:45;10.00;99.90
16838;DHT22;19510;54.486;9.046;2023-04-15T08:20:11;10.00;99.90
16838;DHT22;19510;54.486;9.046;2023-04-15T08:22:38;10.00;99.90
16838;DHT22;19510;54.486;9.046;2023-04-15T08:25:04;10.00;99.90
16838;DHT22;19510;54.486;9.046;2023-04-15T08:27:32;10.10;99.90
16838;DHT22;19510;54.486;9.046;2023-04-15T08:29:58;10.00;99.90
16838;DHT22;19510;54.486;9.046;2023-04-15T08:32:23;10.00;99.90
16838;DHT22;19510;54.486;9.046;2023-04-15T08:34:51;10.10;99.90
16838;DHT22;19510;54.486;9.046;2023-04-15T08:37:17;10.10;99.90
16838;DHT22;19510;54.486;9.046;2023-04-15T08:39:43;10.10;99.90
16838;DHT22;19510;54.486;9.046;2023-04-15T08:42:16;10.10;99.90
16838;DHT22;19510;54.486;9.046;2023-04-15T08:44:45;10.10;99.90
16838;DHT22;19510;54.486;9.046;2023-04-15T08:47:13;10.10;99.90
16838;DHT22;19510;54.486;9.046;2023-04-15T08:49:40;10.10;99.90
16838;DHT22;19510;54.486;9.046;2023-04-15T08:52:08;10.20;99.90
16838;DHT22;19510;54.486;9.046;2023-04-15T08:54:34;10.20;99.90
16838;DHT22;19510;54.486;9.046;2023-04-15T08:57:00;10.10;99.90
16838;DHT22;19510;54.486;9.046;2023-04-15T08:59:29;10.20;99.90
16838;DHT22;19510;54.486;9.046;2023-04-15T09:01:56;10.20;99.90
16838;DHT22;19510;54.486;9.046;2023-04-15T09:04:23;10.30;99.90
16838;DHT22;19510;54.486;9.046;2023-04-15T09:06:48;10.20;99.90
16838;DHT22;19510;54.486;9.046;2023-04-15T09:09:14;10.30;99.90
16838;DHT22;19510;54.486;9.046;2023-04-15T09:11:43;10.30;99.90
16838;DHT22;19510;54.486;9.046;2023-04-15T09:14:09;10.40;99.90
16838;DHT22;19510;54.486;9.046;2023-04-15T09:19:23;10.50;99.90
16838;DHT22;19510;54.486;9.046;2023-04-15T09:21:52;10.50;99.90
16838;DHT22;19510;54.486;9.046;2023-04-15T09:24:18;10.40;99.90
16838;DHT22;19510;54.486;9.046;2023-04-15T09:26:44;10.50;99.90
16838;DHT22;19510;54.486;9.046;2023-04-15T09:29:11;10.50;99.90
16838;DHT22;19510;54.486;9.046;2023-04-15T09:31:40;10.50;99.90
16838;DHT22;19510;54.486;9.046;2023-04-15T09:34:07;10.60;99.90
16838;DHT22;19510;54.486;9.046;2023-04-15T09:39:15;10.60;99.90
16838;DHT22;19510;54.486;9.046;2023-04-15T09:41:40;10.60;99.90
16838;DHT22;19510;54.486;9.046;2023-04-15T09:44:21;10.60;99.90
16838;DHT22;19510;54.486;9.046;2023-04-15T09:46:47;10.60;99.90
16838;DHT22;19510;54.486;9.046;2023-04-15T09:49:13;10.60;99.90
16838;DHT22;19510;54.486;9.046;2023-04-15T09:51:42;10.60;99.90
16838;DHT22;19510;54.486;9.046;2023-04-15T09:54:09;10.60;99.90
16838;DHT22;19510;54.486;9.046;2023-04-15T09:56:38;10.60;99.90
16838;DHT22;19510;54.486;9.046;2023-04-15T09:59:09;10.60;99.90
16838;DHT22;19510;54.486;9.046;2023-04-15T10:01:38;10.60;99.90
16838;DHT22;19510;54.486;9.046;2023-04-15T10:04:05;10.70;99.90
16838;DHT22;19510;54.486;9.046;2023-04-15T10:06:31;10.70;99.90
16838;DHT22;19510;54.486;9.046;2023-04-15T10:08:58;10.60;99.90
16838;DHT22;19510;54.486;9.046;2023-04-15T10:11:27;10.60;99.90
16838;DHT22;19510;54.486;9.046;2023-04-15T10:13:53;10.70;99.90
16838;DHT22;19510;54.486;9.046;2023-04-15T10:16:20;10.70;99.90
16838;DHT22;19510;54.486;9.046;2023-04-15T10:18:53;10.70;99.90
16838;DHT22;19510;54.486;9.046;2023-04-15T10:21:23;10.70;99.90
16838;DHT22;19510;54.486;9.046;2023-04-15T10:23:49;10.70;99.90
16838;DHT22;19510;54.486;9.046;2023-04-15T10:26:16;10.70;99.90
16838;DHT22;19510;54.486;9.046;2023-04-15T10:28:43;10.70;99.90
16838;DHT22;19510;54.486;9.046;2023-04-15T10:31:11;10.70;99.90
16838;DHT22;19510;54.486;9.046;2023-04-15T10:33:38;10.80;99.90
16838;DHT22;19510;54.486;9.046;2023-04-15T10:36:05;10.80;99.90
16838;DHT22;19510;54.486;9.046;2023-04-15T10:38:37;10.90;99.90
16838;DHT22;19510;54.486;9.046;2023-04-15T10:41:20;11.00;99.90
16838;DHT22;19510;54.486;9.046;2023-04-15T10:43:54;11.10;99.90
16838;DHT22;19510;54.486;9.046;2023-04-15T10:46:23;11.10;99.90
16838;DHT22;19510;54.486;9.046;2023-04-15T10:48:51;11.20;99.90
16838;DHT22;19510;54.486;9.046;2023-04-15T10:51:30;11.20;99.90
16838;DHT22;19510;54.486;9.046;2023-04-15T10:53:59;11.30;99.90
16838;DHT22;19510;54.486;9.046;2023-04-15T10:56:27;11.30;99.90
16838;DHT22;19510;54.486;9.046;2023-04-15T10:58:52;11.40;99.90
16838;DHT22;19510;54.486;9.046;2023-04-15T11:01:19;11.60;99.90
16838;DHT22;19510;54.486;9.046;2023-04-15T11:03:47;11.70;99.90
16838;DHT22;19510;54.486;9.046;2023-04-15T11:06:13;11.70;99.90
16838;DHT22;19510;54.486;9.046;2023-04-15T11:08:58;11.80;99.90
16838;DHT22;19510;54.486;9.046;2023-04-15T11:12:04;11.90;99.90
16838;DHT22;19510;54.486;9.046;2023-04-15T11:14:32;12.00;99.90
16838;DHT22;19510;54.486;9.046;2023-04-15T11:17:00;12.10;99.90
16838;DHT22;19510;54.486;9.046;2023-04-15T11:19:37;12.20;99.90
16838;DHT22;19510;54.486;9.046;2023-04-15T11:22:10;12.30;99.90
16838;DHT22;19510;54.486;9.046;2023-04-15T11:24:46;12.40;99.90
16838;DHT22;19510;54.486;9.046;2023-04-15T11:27:24;12.50;99.90
16838;DHT22;19510;54.486;9.046;2023-04-15T11:29:49;12.70;99.90
16838;DHT22;19510;54.486;9.046;2023-04-15T11:32:15;12.80;99.90
16838;DHT22;19510;54.486;9.046;2023-04-15T11:34:45;12.90;99.90
16838;DHT22;19510;54.486;9.046;2023-04-15T11:37:11;12.90;99.90
16838;DHT22;19510;54.486;9.046;2023-04-15T11:39:46;13.00;99.90
16838;DHT22;19510;54.486;9.046;2023-04-15T11:42:16;13.10;99.90
16838;DHT22;19510;54.486;9.046;2023-04-15T11:44:42;13.10;99.90
16838;DHT22;19510;54.486;9.046;2023-04-15T11:47:24;13.10;99.90
16838;DHT22;19510;54.486;9.046;2023-04-15T11:49:49;13.20;99.90
16838;DHT22;19510;54.486;9.046;2023-04-15T11:52:15;13.10;99.90
16838;DHT22;19510;54.486;9.046;2023-04-15T11:54:41;13.20;99.90
16838;DHT22;19510;54.486;9.046;2023-04-15T11:57:07;13.30;99.90
16838;DHT22;19510;54.486;9.046;2023-04-15T11:59:42;13.60;99.90
16838;DHT22;19510;54.486;9.046;2023-04-15T12:02:12;13.70;99.90
16838;DHT22;19510;54.486;9.046;2023-04-15T12:04:38;13.80;99.90
16838;DHT22;19510;54.486;9.046;2023-04-15T12:07:04;13.90;99.90
16838;DHT22;19510;54.486;9.046;2023-04-15T12:09:39;14.00;99.90
16838;DHT22;19510;54.486;9.046;2023-04-15T12:12:05;14.10;99.90
16838;DHT22;19510;54.486;9.046;2023-04-15T12:14:31;14.30;99.90
16838;DHT22;19510;54.486;9.046;2023-04-15T12:17:05;14.30;99.90
16838;DHT22;19510;54.486;9.046;2023-04-15T12:19:40;14.40;99.90
16838;DHT22;19510;54.486;9.046;2023-04-15T12:22:14;14.40;99.90
16838;DHT22;19510;54.486;9.046;2023-04-15T12:24:42;14.50;99.90
16838;DHT22;19510;54.486;9.046;2023-04-15T12:27:13;14.60;99.90
16838;DHT22;19510;54.486;9.046;2023-04-15T12:29:41;14.80;99.90
16838;DHT22;19510;54.486;9.046;2023-04-15T12:32:15;14.90;99.90
16838;DHT22;19510;54.486;9.046;2023-04-15T12:34:49;15.00;99.90
16838;DHT22;19510;54.486;9.046;2023-04-15T12:37:15;15.00;99.90
16838;DHT22;19510;54.486;9.046;2023-04-15T12:39:42;15.10;99.90
16838;DHT22;19510;54.486;9.046;2023-04-15T12:42:09;15.40;99.90
16838;DHT22;19510;54.486;9.046;2023-04-15T12:44:36;15.40;99.90
16838;DHT22;19510;54.486;9.046;2023-04-15T12:47:03;15.50;99.90
16838;DHT22;19510;54.486;9.046;2023-04-15T12:49:30;15.70;99.90
16838;DHT22;19510;54.486;9.046;2023-04-15T12:51:58;15.80;99.90
16838;DHT22;19510;54.486;9.046;2023-04-15T12:54:25;15.80;99.90
16838;DHT22;19510;54.486;9.046;2023-04-15T12:56:51;15.70;99.90
16838;DHT22;19510;54.486;9.046;2023-04-15T12:59:17;15.80;99.90
16838;DHT22;19510;54.486;9.046;2023-04-15T13:01:44;15.80;99.90
16838;DHT22;19510;54.486;9.046;2023-04-15T13:04:10;15.90;99.90
16838;DHT22;19510;54.486;9.046;2023-04-15T13:06:36;16.00;99.90
16838;DHT22;19510;54.486;9.046;2023-04-15T13:09:03;16.10;99.90
16838;DHT22;19510;54.486;9.046;2023-04-15T13:11:29;16.10;99.90
16838;DHT22;19510;54.486;9.046;2023-04-15T13:14:00;16.20;99.90
16838;DHT22;19510;54.486;9.046;2023-04-15T13:16:26;16.20;99.90
16838;DHT22;19510;54.486;9.046;2023-04-15T13:18:52;16.20;99.90
16838;DHT22;19510;54.486;9.046;2023-04-15T13:21:20;16.10;99.90
16838;DHT22;19510;54.486;9.046;2023-04-15T13:23:47;16.20;99.90
16838;DHT22;19510;54.486;9.046;2023-04-15T13:26:14;16.20;99.90
16838;DHT22;19510;54.486;9.046;2023-04-15T13:28:40;16.20;99.90
16838;DHT22;19510;54.486;9.046;2023-04-15T13:31:06;16.10;99.90
16838;DHT22;19510;54.486;9.046;2023-04-15T13:33:32;16.00;99.90
16838;DHT22;19510;54.486;9.046;2023-04-15T13:35:57;15.70;99.90
16838;DHT22;19510;54.486;9.046;2023-04-15T13:38:23;15.70;99.90
16838;DHT22;19510;54.486;9.046;2023-04-15T13:40:50;15.80;99.90
16838;DHT22;19510;54.486;9.046;2023-04-15T13:43:16;16.00;99.90
16838;DHT22;19510;54.486;9.046;2023-04-15T13:45:42;16.30;99.90
16838;DHT22;19510;54.486;9.046;2023-04-15T13:48:08;16.50;99.90
16838;DHT22;19510;54.486;9.046;2023-04-15T13:50:34;16.70;99.90
16838;DHT22;19510;54.486;9.046;2023-04-15T13:53:02;17.00;99.90
16838;DHT22;19510;54.486;9.046;2023-04-15T13:55:28;17.10;99.90
16838;DHT22;19510;54.486;9.046;2023-04-15T13:57:55;17.30;99.90
16838;DHT22;19510;54.486;9.046;2023-04-15T14:00:21;17.20;99.90
16838;DHT22;19510;54.486;9.046;2023-04-15T14:02:47;17.30;99.90
16838;DHT22;19510;54.486;9.046;2023-04-15T14:05:12;17.20;99.90
16838;DHT22;19510;54.486;9.046;2023-04-15T14:07:38;17.20;99.90
16838;DHT22;19510;54.486;9.046;2023-04-15T14:10:05;17.20;99.90
16838;DHT22;19510;54.486;9.046;2023-04-15T14:12:33;17.20;99.90
16838;DHT22;19510;54.486;9.046;2023-04-15T14:14:59;17.20;99.90
16838;DHT22;19510;54.486;9.046;2023-04-15T14:17:24;17.20;99.90
16838;DHT22;19510;54.486;9.046;2023-04-15T14:19:50;17.30;99.90
16838;DHT22;19510;54.486;9.046;2023-04-15T14:22:16;17.20;99.90
16838;DHT22;19510;54.486;9.046;2023-04-15T14:24:43;17.20;99.90
16838;DHT22;19510;54.486;9.046;2023-04-15T14:27:12;17.30;99.90
16838;DHT22;19510;54.486;9.046;2023-04-15T14:29:38;17.30;99.90
16838;DHT22;19510;54.486;9.046;2023-04-15T14:32:04;17.50;99.90
16838;DHT22;19510;54.486;9.046;2023-04-15T14:34:30;17.40;99.90
16838;DHT22;19510;54.486;9.046;2023-04-15T14:36:56;17.30;99.90
16838;DHT22;19510;54.486;9.046;2023-04-15T14:39:55;17.00;99.90
16838;DHT22;19510;54.486;9.046;2023-04-15T14:42:21;17.10;99.90
16838;DHT22;19510;54.486;9.046;2023-04-15T14:44:47;17.00;99.90
16838;DHT22;19510;54.486;9.046;2023-04-15T14:47:28;16.80;99.90
16838;DHT22;19510;54.486;9.046;2023-04-15T14:49:55;16.70;99.90
16838;DHT22;19510;54.486;9.046;2023-04-15T14:52:24;16.60;99.90
16838;DHT22;19510;54.486;9.046;2023-04-15T14:54:50;16.50;99.90
16838;DHT22;19510;54.486;9.046;2023-04-15T14:57:15;16.70;99.90
16838;DHT22;19510;54.486;9.046;2023-04-15T14:59:44;16.90;99.90
16838;DHT22;19510;54.486;9.046;2023-04-15T15:02:10;17.10;99.90
16838;DHT22;19510;54.486;9.046;2023-04-15T15:04:35;17.30;99.90
16838;DHT22;19510;54.486;9.046;2023-04-15T15:07:01;17.40;99.90
16838;DHT22;19510;54.486;9.046;2023-04-15T15:09:27;17.50;99.90
16838;DHT22;19510;54.486;9.046;2023-04-15T15:11:53;17.60;99.90
16838;DHT22;19510;54.486;9.046;2023-04-15T15:14:19;17.50;99.90
16838;DHT22;19510;54.486;9.046;2023-04-15T15:16:45;17.30;99.90
16838;DHT22;19510;54.486;9.046;2023-04-15T15:19:10;17.00;99.90
16838;DHT22;19510;54.486;9.046;2023-04-15T15:21:36;16.90;99.90
16838;DHT22;19510;54.486;9.046;2023-04-15T15:24:02;16.60;99.90
16838;DHT22;19510;54.486;9.046;2023-04-15T15:29:19;16.50;99.90
16838;DHT22;19510;54.486;9.046;2023-04-15T15:31:45;16.50;99.90
16838;DHT22;19510;54.486;9.046;2023-04-15T15:34:42;16.50;99.90
16838;DHT22;19510;54.486;9.046;2023-04-15T15:37:08;16.40;99.90
16838;DHT22;19510;54.486;9.046;2023-04-15T15:39:34;16.30;99.90
16838;DHT22;19510;54.486;9.046;2023-04-15T15:42:12;16.30;99.90
16838;DHT22;19510;54.486;9.046;2023-04-15T15:45:01;16.40;99.90
16838;DHT22;19510;54.486;9.046;2023-04-15T15:47:37;16.50;99.90
16838;DHT22;19510;54.486;9.046;2023-04-15T15:50:03;16.80;99.90
16838;DHT22;19510;54.486;9.046;2023-04-15T15:52:29;17.10;99.90
16838;DHT22;19510;54.486;9.046;2023-04-15T15:54:55;17.30;99.90
16838;DHT22;19510;54.486;9.046;2023-04-15T15:57:21;17.40;99.90
16838;DHT22;19510;54.486;9.046;2023-04-15T15:59:47;17.40;99.90
16838;DHT22;19510;54.486;9.046;2023-04-15T16:02:13;17.30;99.90
16838;DHT22;19510;54.486;9.046;2023-04-15T16:04:39;17.40;99.90
16838;DHT22;19510;54.486;9.046;2023-04-15T16:07:08;17.50;99.90
16838;DHT22;19510;54.486;9.046;2023-04-15T16:09:34;17.60;99.90
16838;DHT22;19510;54.486;9.046;2023-04-15T16:11:59;17.60;99.90
16838;DHT22;19510;54.486;9.046;2023-04-15T16:14:26;17.20;99.90
16838;DHT22;19510;54.486;9.046;2023-04-15T16:16:54;17.00;99.90
16838;DHT22;19510;54.486;9.046;2023-04-15T16:19:20;16.90;99.90
16838;DHT22;19510;54.486;9.046;2023-04-15T16:21:46;16.90;99.90
16838;DHT22;19510;54.486;9.046;2023-04-15T16:24:12;16.70;99.90
16838;DHT22;19510;54.486;9.046;2023-04-15T16:26:39;16.40;99.90
16838;DHT22;19510;54.486;9.046;2023-04-15T16:29:08;16.10;99.90
16838;DHT22;19510;54.486;9.046;2023-04-15T16:31:34;16.00;99.90
16838;DHT22;19510;54.486;9.046;2023-04-15T16:34:01;16.00;99.90
16838;DHT22;19510;54.486;9.046;2023-04-15T16:36:27;15.90;99.90
16838;DHT22;19510;54.486;9.046;2023-04-15T16:38:53;15.80;99.90
16838;DHT22;19510;54.486;9.046;2023-04-15T16:41:20;15.70;99.90
16838;DHT22;19510;54.486;9.046;2023-04-15T16:43:48;15.60;99.90
16838;DHT22;19510;54.486;9.046;2023-04-15T16:46:14;15.50;99.90
16838;DHT22;19510;54.486;9.046;2023-04-15T16:48:39;15.50;99.90
16838;DHT22;19510;54.486;9.046;2023-04-15T16:51:07;15.40;99.90
16838;DHT22;19510;54.486;9.046;2023-04-15T16:53:33;15.40;99.90
16838;DHT22;19510;54.486;9.046;2023-04-15T16:55:59;15.30;99.90
16838;DHT22;19510;54.486;9.046;2023-04-15T16:58:25;15.30;99.90
16838;DHT22;19510;54.486;9.046;2023-04-15T17:00:50;15.20;99.90
16838;DHT22;19510;54.486;9.046;2023-04-15T17:03:16;14.90;99.90
16838;DHT22;19510;54.486;9.046;2023-04-15T17:05:42;14.70;99.90
16838;DHT22;19510;54.486;9.046;2023-04-15T17:08:10;14.70;99.90
16838;DHT22;19510;54.486;9.046;2023-04-15T17:10:36;14.70;99.90
16838;DHT22;19510;54.486;9.046;2023-04-15T17:13:02;14.70;99.90
16838;DHT22;19510;54.486;9.046;2023-04-15T17:15:27;14.60;99.90
16838;DHT22;19510;54.486;9.046;2023-04-15T17:17:56;14.50;99.90
16838;DHT22;19510;54.486;9.046;2023-04-15T17:20:24;14.40;99.90
16838;DHT22;19510;54.486;9.046;2023-04-15T17:22:51;14.30;99.90
16838;DHT22;19510;54.486;9.046;2023-04-15T17:25:16;14.30;99.90
16838;DHT22;19510;54.486;9.046;2023-04-15T17:27:43;14.20;99.90
16838;DHT22;19510;54.486;9.046;2023-04-15T17:30:09;14.20;99.90
16838;DHT22;19510;54.486;9.046;2023-04-15T17:32:39;14.20;99.90
16838;DHT22;19510;54.486;9.046;2023-04-15T17:35:06;14.10;99.90
16838;DHT22;19510;54.486;9.046;2023-04-15T17:37:32;14.10;99.90
16838;DHT22;19510;54.486;9.046;2023-04-15T17:39:58;14.00;99.90
16838;DHT22;19510;54.486;9.046;2023-04-15T17:42:24;13.90;99.90
16838;DHT22;19510;54.486;9.046;2023-04-15T17:44:51;13.90;99.90
16838;DHT22;19510;54.486;9.046;2023-04-15T17:47:16;13.90;99.90
16838;DHT22;19510;54.486;9.046;2023-04-15T17:49:44;13.90;99.90
16838;DHT22;19510;54.486;9.046;2023-04-15T17:52:14;13.80;99.90
16838;DHT22;19510;54.486;9.046;2023-04-15T17:54:39;13.70;99.90
16838;DHT22;19510;54.486;9.046;2023-04-15T17:57:05;13.70;99.90
16838;DHT22;19510;54.486;9.046;2023-04-15T17:59:31;13.70;99.90
16838;DHT22;19510;54.486;9.046;2023-04-15T18:01:58;13.70;99.90
16838;DHT22;19510;54.486;9.046;2023-04-15T18:04:24;13.60;99.90
16838;DHT22;19510;54.486;9.046;2023-04-15T18:06:50;13.60;99.90
16838;DHT22;19510;54.486;9.046;2023-04-15T18:09:16;13.50;99.90
16838;DHT22;19510;54.486;9.046;2023-04-15T18:11:42;13.50;99.90
16838;DHT22;19510;54.486;9.046;2023-04-15T18:14:09;13.50;99.90
16838;DHT22;19510;54.486;9.046;2023-04-15T18:16:35;13.40;99.90
16838;DHT22;19510;54.486;9.046;2023-04-15T18:19:01;13.40;99.90
16838;DHT22;19510;54.486;9.046;2023-04-15T18:21:26;13.30;99.90
16838;DHT22;19510;54.486;9.046;2023-04-15T18:23:52;13.30;99.90
16838;DHT22;19510;54.486;9.046;2023-04-15T18:26:18;13.30;99.90
16838;DHT22;19510;54.486;9.046;2023-04-15T18:28:46;13.20;99.90
16838;DHT22;19510;54.486;9.046;2023-04-15T18:31:11;13.20;99.90
16838;DHT22;19510;54.486;9.046;2023-04-15T18:33:38;13.10;99.90
16838;DHT22;19510;54.486;9.046;2023-04-15T18:36:06;13.10;99.90
16838;DHT22;19510;54.486;9.046;2023-04-15T18:38:31;13.20;99.90
16838;DHT22;19510;54.486;9.046;2023-04-15T18:40:57;13.00;99.90
16838;DHT22;19510;54.486;9.046;2023-04-15T18:43:23;13.00;99.90
16838;DHT22;19510;54.486;9.046;2023-04-15T18:45:50;13.00;99.90
16838;DHT22;19510;54.486;9.046;2023-04-15T18:48:16;12.90;99.90
16838;DHT22;19510;54.486;9.046;2023-04-15T18:50:42;12.90;99.90
16838;DHT22;19510;54.486;9.046;2023-04-15T18:53:08;12.90;99.90
16838;DHT22;19510;54.486;9.046;2023-04-15T18:55:34;12.90;99.90
16838;DHT22;19510;54.486;9.046;2023-04-15T18:58:00;12.80;99.90
16838;DHT22;19510;54.486;9.046;2023-04-15T19:00:25;12.80;99.90
16838;DHT22;19510;54.486;9.046;2023-04-15T19:02:51;12.70;99.90
16838;DHT22;19510;54.486;9.046;2023-04-15T19:05:17;12.60;99.90
16838;DHT22;19510;54.486;9.046;2023-04-15T19:07:45;12.60;99.90
16838;DHT22;19510;54.486;9.046;2023-04-15T19:10:11;12.60;99.90
16838;DHT22;19510;54.486;9.046;2023-04-15T19:12:36;12.60;99.90
16838;DHT22;19510;54.486;9.046;2023-04-15T19:15:05;12.50;99.90
16838;DHT22;19510;54.486;9.046;2023-04-15T19:17:30;12.50;99.90
16838;DHT22;19510;54.486;9.046;2023-04-15T19:19:56;12.50;99.90
16838;DHT22;19510;54.486;9.046;2023-04-15T19:22:22;12.50;99.90
16838;DHT22;19510;54.486;9.046;2023-04-15T19:24:52;12.40;99.90
16838;DHT22;19510;54.486;9.046;2023-04-15T19:27:18;12.40;99.90
16838;DHT22;19510;54.486;9.046;2023-04-15T19:29:44;12.40;99.90
16838;DHT22;19510;54.486;9.046;2023-04-15T19:32:09;12.40;99.90
16838;DHT22;19510;54.486;9.046;2023-04-15T19:34:35;12.30;99.90
16838;DHT22;19510;54.486;9.046;2023-04-15T19:37:03;12.30;99.90
16838;DHT22;19510;54.486;9.046;2023-04-15T19:39:31;12.30;99.90
16838;DHT22;19510;54.486;9.046;2023-04-15T19:41:57;12.30;99.90
16838;DHT22;19510;54.486;9.046;2023-04-15T19:44:23;12.20;99.90
16838;DHT22;19510;54.486;9.046;2023-04-15T19:46:51;12.20;99.90
16838;DHT22;19510;54.486;9.046;2023-04-15T19:49:18;12.20;99.90
16838;DHT22;19510;54.486;9.046;2023-04-15T19:51:47;12.20;99.90
16838;DHT22;19510;54.486;9.046;2023-04-15T19:54:13;12.20;99.90
16838;DHT22;19510;54.486;9.046;2023-04-15T19:56:39;12.10;99.90
16838;DHT22;19510;54.486;9.046;2023-04-15T19:59:05;12.10;99.90
16838;DHT22;19510;54.486;9.046;2023-04-15T20:01:30;12.10;99.90
16838;DHT22;19510;54.486;9.046;2023-04-15T20:03:56;12.00;99.90
16838;DHT22;19510;54.486;9.046;2023-04-15T20:06:24;12.10;99.90
16838;DHT22;19510;54.486;9.046;2023-04-15T20:08:52;12.10;99.90
16838;DHT22;19510;54.486;9.046;2023-04-15T20:11:21;12.10;99.90
16838;DHT22;19510;54.486;9.046;2023-04-15T20:13:54;12.00;99.90
16838;DHT22;19510;54.486;9.046;2023-04-15T20:16:22;12.00;99.90
16838;DHT22;19510;54.486;9.046;2023-04-15T20:18:48;12.00;99.90
16838;DHT22;19510;54.486;9.046;2023-04-15T20:21:13;12.00;99.90
16838;DHT22;19510;54.486;9.046;2023-04-15T20:23:39;12.00;99.90
16838;DHT22;19510;54.486;9.046;2023-04-15T20:26:05;12.00;99.90
16838;DHT22;19510;54.486;9.046;2023-04-15T20:28:31;11.90;99.90
16838;DHT22;19510;54.486;9.046;2023-04-15T20:31:00;11.90;99.90
16838;DHT22;19510;54.486;9.046;2023-04-15T20:33:25;11.90;99.90
16838;DHT22;19510;54.486;9.046;2023-04-15T20:35:52;12.00;99.90
16838;DHT22;19510;54.486;9.046;2023-04-15T20:38:18;12.00;99.90
16838;DHT22;19510;54.486;9.046;2023-04-15T20:40:44;12.00;99.90
16838;DHT22;19510;54.486;9.046;2023-04-15T20:43:12;12.00;99.90
16838;DHT22;19510;54.486;9.046;2023-04-15T20:45:41;11.90;99.90
16838;DHT22;19510;54.486;9.046;2023-04-15T20:48:11;11.90;99.90
16838;DHT22;19510;54.486;9.046;2023-04-15T20:50:37;11.90;99.90
16838;DHT22;19510;54.486;9.046;2023-04-15T20:53:03;12.00;99.90
16838;DHT22;19510;54.486;9.046;2023-04-15T20:55:29;11.90;99.90
16838;DHT22;19510;54.486;9.046;2023-04-15T20:57:55;11.90;99.90
16838;DHT22;19510;54.486;9.046;2023-04-15T21:00:21;12.00;99.90
16838;DHT22;19510;54.486;9.046;2023-04-15T21:02:47;11.90;99.90